Seago Piraeus — OXVD2 — position and weather

sailwx.info

Track history (hours):
 
Tides and Currents Weather Stations Pressure Air Temp Water Temp Dewpoint Dewpoint Depression Visibility Wind Speed Wind Dir Waves Ship Positions

Seago Piraeus

Last reported at 2016-May-05 20:32 UTC. Time now 2016-May-06 11:13 UTC.
Position N 35°49' E 014°32'.

Length 294 m; draft 14 m.

Type: Ship (hazmat cat A). MMSI: 219117000.

Date/timePositionNaut miles runAvg speedWind from/ knotsBaromVisibWave heightAir tempDewpointWater temp
2016-May-05 20:32N 35°49' E 014°32'0 0.4
2016-May-05 19:33N 35°49' E 014°33'0 0.0
2016-May-05 18:33N 35°49' E 014°33'0 0.0
2016-May-05 17:30N 35°49' E 014°33'0 0.0
2016-May-05 16:33N 35°49' E 014°33'0 0.0
2016-May-05 15:30N 35°49' E 014°33'0 0.0
2016-May-05 13:33N 35°49' E 014°33'0 0.0
2016-May-05 12:21N 35°49' E 014°33'0 0.0
2016-May-05 11:30N 35°49' E 014°33'0 0.0
2016-May-05 07:24N 35°49' E 014°33'0 0.0
2016-May-05 06:30N 35°49' E 014°33'0 0.0
2016-May-05 03:33N 35°49' E 014°33'1 1.3
2016-May-05 02:33N 35°49' E 014°34'1110.6
2016-May-05 01:33N 35°46' E 014°21'2120.4
2016-May-05 00:33N 35°56' E 013°60'2120.7
2016-May-04 23:33N 36°07' E 013°38'2120.7
2016-May-04 22:33N 36°18' E 013°16'2221.2
2016-May-04 21:31N 36°29' E 012°53'2221.4
2016-May-04 20:29N 36°42' E 012°30'2021.2
2016-May-04 19:33N 36°53' E 012°10'47617.0
2016-May-03 15:33N 36°54' E 002°14'1515.3
2016-May-03 14:33N 36°52' E 001°55'4816.1
2016-May-03 11:33N 36°42' E 000°56'3316.3
2016-May-03 09:33N 36°37' E 000°16'2116.1
2016-May-03 08:16N 36°32' W 000°09'1715.2
2016-May-03 07:10N 36°29' W 000°30'914.9
2016-May-03 06:33N 36°27' W 000°40'1515.3
2016-May-03 05:33N 36°24' W 000°59'1615.8
2016-May-03 04:33N 36°21' W 001°18'2215.7
2016-May-03 03:11N 36°18' W 001°45'16815.1
2016-May-02 16:05N 36°01' W 005°12'714.1
2016-May-02 15:34N 35°59' W 005°21'23212.2
2016-May-01 20:33N 37°30' W 009°47'1413.9
2016-May-01 19:32N 37°44' W 009°51'1414.4
2016-May-01 18:33N 37°58' W 009°54'1414.2
2016-May-01 17:33N 38°12' W 009°58'1414.2
2016-May-01 16:33N 38°26' W 010°01'1514.6
2016-May-01 15:30N 38°41' W 010°05'1414.5
2016-May-01 14:31N 38°55' W 010°05'1414.6
2016-May-01 13:33N 39°09' W 010°06'68513.2
2016-Apr-29 09:33N 49°40' W 003°50'1010.4
2016-Apr-29 08:33N 49°45' W 003°37'1110.7
2016-Apr-29 07:33N 49°51' W 003°23'1211.6
2016-Apr-29 06:33N 49°56' W 003°07'1212.3
2016-Apr-29 05:33N 50°01' W 002°49'5410.8
2016-Apr-29 00:32N 50°17' W 001°28'9 8.1
2016-Apr-28 23:27N 50°19' W 001°15'17 8.6
2016-Apr-28 21:29N 50°23' W 000°50'1010.5
2016-Apr-28 20:33N 50°25' W 000°35'1111.2
2016-Apr-28 19:33N 50°28' W 000°18'1211.6
2016-Apr-28 18:33N 50°31' W 000°00'1211.5
2016-Apr-28 17:33N 50°34' E 000°18'1311.0
2016-Apr-28 16:22N 50°38' E 000°37'2110.4
2016-Apr-28 14:23N 50°51' E 001°03'810.1
2016-Apr-28 13:33N 50°56' E 001°13'1111.0
2016-Apr-28 12:33N 51°03' E 001°26'1313.2
2016-Apr-28 11:33N 51°12' E 001°42'1413.7
2016-Apr-28 10:33N 51°22' E 001°56'10 9.7
2016-Apr-28 09:34N 51°21' E 002°12'1311.5
2016-Apr-28 08:26N 51°23' E 002°32'910.3
2016-Apr-28 07:34N 51°24' E 002°47'1313.0
2016-Apr-28 06:33N 51°24' E 003°07'1313.4
2016-Apr-28 05:33N 51°25' E 003°29'9 9.1
2016-Apr-28 04:33N 51°23' E 003°43'9 8.7
2016-Apr-28 03:33N 51°23' E 003°57'6 6.1
2016-Apr-28 02:33N 51°22' E 004°07'7 6.6
2016-Apr-28 01:33N 51°20' E 004°16'2 1.7
2016-Apr-28 00:31N 51°18' E 004°16'0 0.0
2016-Apr-27 23:28N 51°18' E 004°16'0 0.0
2016-Apr-27 22:31N 51°18' E 004°16'0 0.0
2016-Apr-27 21:31N 51°18' E 004°16'0 0.0
2016-Apr-27 20:28N 51°18' E 004°16'0 0.0
2016-Apr-27 19:31N 51°18' E 004°16'0 0.0
2016-Apr-27 18:28N 51°18' E 004°16'0 0.0
2016-Apr-27 17:31N 51°18' E 004°16'0 0.0
2016-Apr-27 16:31N 51°18' E 004°16'0 0.0
2016-Apr-27 15:31N 51°18' E 004°16'0 0.0
2016-Apr-27 14:31N 51°18' E 004°16'0 0.0
2016-Apr-27 13:31N 51°18' E 004°16'0 0.0
2016-Apr-27 12:31N 51°18' E 004°16'0 0.0
2016-Apr-27 11:31N 51°18' E 004°16'0 0.0
2016-Apr-27 10:31N 51°18' E 004°16'0 0.0
2016-Apr-27 09:31N 51°18' E 004°16'0 0.0
2016-Apr-27 08:31N 51°18' E 004°16'0 0.0
2016-Apr-27 07:31N 51°18' E 004°16'0 0.0
2016-Apr-27 06:31N 51°18' E 004°16'0 0.0
2016-Apr-27 05:31N 51°18' E 004°16'0 0.0
2016-Apr-27 04:31N 51°18' E 004°16'0 0.0
2016-Apr-27 03:31N 51°18' E 004°16'0 0.0
2016-Apr-27 02:32N 51°18' E 004°16'6 5.7
2016-Apr-27 01:34N 51°23' E 004°13'10 9.9
2016-Apr-27 00:34N 51°23' E 003°57'1212.1
2016-Apr-26 23:34N 51°26' E 003°38'1111.3
2016-Apr-26 22:33N 51°24' E 003°20'1313.4
2016-Apr-26 21:34N 51°26' E 002°59'1615.3
2016-Apr-26 20:32N 51°39' E 003°11'3314.9
2016-Apr-26 18:18N 52°12' E 003°20'1418.3
2016-Apr-26 17:33N 52°25' E 003°28'5816.9
2016-Apr-26 14:09N 53°11' E 004°25'2916.9
2016-Apr-26 12:26N 53°33' E 004°57'1517.0
2016-Apr-26 11:33N 53°38' E 005°21'1615.9
2016-Apr-26 10:33N 53°42' E 005°46'1414.3
2016-Apr-26 09:33N 53°47' E 006°09'1514.3
2016-Apr-26 08:32N 53°51' E 006°33'1414.7
2016-Apr-26 07:33N 53°54' E 006°57'1615.5
2016-Apr-26 06:33N 53°58' E 007°23'1313.1
2016-Apr-26 05:34N 53°55' E 007°44'1514.7
2016-Apr-26 04:33N 53°49' E 008°07'1717.0
2016-Apr-26 03:33N 53°37' E 008°28'2 2.4
2016-Apr-26 02:33N 53°36' E 008°31'0 0.0
2016-Apr-26 01:32N 53°36' E 008°31'0 0.0
2016-Apr-26 00:32N 53°36' E 008°31'0 0.0
2016-Apr-25 23:32N 53°36' E 008°31'0 0.0
2016-Apr-25 22:32N 53°36' E 008°31'0 0.0
2016-Apr-25 21:32N 53°36' E 008°31'  
Track history (hours):
 
Tides and Currents Weather Stations Pressure Air Temp Water Temp Dewpoint Dewpoint Depression Visibility Wind Speed Wind Dir Waves Ship Positions

Seago Piraeus

Last reported at 2016-May-05 20:32 UTC. Time now 2016-May-06 11:13 UTC.
Position N 35°49' E 014°32'.

Length 294 m; draft 14 m.

Type: Ship (hazmat cat A). MMSI: 219117000.

Date/timePositionNaut miles runAvg speedWind from/ knotsBaromVisibWave heightAir tempDewpointWater temp
2016-May-05 20:32N 35°49' E 014°32'0 0.4
2016-May-05 19:33N 35°49' E 014°33'0 0.0
2016-May-05 18:33N 35°49' E 014°33'0 0.0
2016-May-05 17:30N 35°49' E 014°33'0 0.0
2016-May-05 16:33N 35°49' E 014°33'0 0.0
2016-May-05 15:30N 35°49' E 014°33'0 0.0
2016-May-05 13:33N 35°49' E 014°33'0 0.0
2016-May-05 12:21N 35°49' E 014°33'0 0.0
2016-May-05 11:30N 35°49' E 014°33'0 0.0
2016-May-05 07:24N 35°49' E 014°33'0 0.0
2016-May-05 06:30N 35°49' E 014°33'0 0.0
2016-May-05 03:33N 35°49' E 014°33'1 1.3
2016-May-05 02:33N 35°49' E 014°34'1110.6
2016-May-05 01:33N 35°46' E 014°21'2120.4
2016-May-05 00:33N 35°56' E 013°60'2120.7
2016-May-04 23:33N 36°07' E 013°38'2120.7
2016-May-04 22:33N 36°18' E 013°16'2221.2
2016-May-04 21:31N 36°29' E 012°53'2221.4
2016-May-04 20:29N 36°42' E 012°30'2021.2
2016-May-04 19:33N 36°53' E 012°10'47617.0
2016-May-03 15:33N 36°54' E 002°14'1515.3
2016-May-03 14:33N 36°52' E 001°55'4816.1
2016-May-03 11:33N 36°42' E 000°56'3316.3
2016-May-03 09:33N 36°37' E 000°16'2116.1
2016-May-03 08:16N 36°32' W 000°09'1715.2
2016-May-03 07:10N 36°29' W 000°30'914.9
2016-May-03 06:33N 36°27' W 000°40'1515.3
2016-May-03 05:33N 36°24' W 000°59'1615.8
2016-May-03 04:33N 36°21' W 001°18'2215.7
2016-May-03 03:11N 36°18' W 001°45'16815.1
2016-May-02 16:05N 36°01' W 005°12'714.1
2016-May-02 15:34N 35°59' W 005°21'23212.2
2016-May-01 20:33N 37°30' W 009°47'1413.9
2016-May-01 19:32N 37°44' W 009°51'1414.4
2016-May-01 18:33N 37°58' W 009°54'1414.2
2016-May-01 17:33N 38°12' W 009°58'1414.2
2016-May-01 16:33N 38°26' W 010°01'1514.6
2016-May-01 15:30N 38°41' W 010°05'1414.5
2016-May-01 14:31N 38°55' W 010°05'1414.6
2016-May-01 13:33N 39°09' W 010°06'68513.2
2016-Apr-29 09:33N 49°40' W 003°50'1010.4
2016-Apr-29 08:33N 49°45' W 003°37'1110.7
2016-Apr-29 07:33N 49°51' W 003°23'1211.6
2016-Apr-29 06:33N 49°56' W 003°07'1212.3
2016-Apr-29 05:33N 50°01' W 002°49'5410.8
2016-Apr-29 00:32N 50°17' W 001°28'9 8.1
2016-Apr-28 23:27N 50°19' W 001°15'17 8.6
2016-Apr-28 21:29N 50°23' W 000°50'1010.5
2016-Apr-28 20:33N 50°25' W 000°35'1111.2
2016-Apr-28 19:33N 50°28' W 000°18'1211.6
2016-Apr-28 18:33N 50°31' W 000°00'1211.5
2016-Apr-28 17:33N 50°34' E 000°18'1311.0
2016-Apr-28 16:22N 50°38' E 000°37'2110.4
2016-Apr-28 14:23N 50°51' E 001°03'810.1
2016-Apr-28 13:33N 50°56' E 001°13'1111.0
2016-Apr-28 12:33N 51°03' E 001°26'1313.2
2016-Apr-28 11:33N 51°12' E 001°42'1413.7
2016-Apr-28 10:33N 51°22' E 001°56'10 9.7
2016-Apr-28 09:34N 51°21' E 002°12'1311.5
2016-Apr-28 08:26N 51°23' E 002°32'910.3
2016-Apr-28 07:34N 51°24' E 002°47'1313.0
2016-Apr-28 06:33N 51°24' E 003°07'1313.4
2016-Apr-28 05:33N 51°25' E 003°29'9 9.1
2016-Apr-28 04:33N 51°23' E 003°43'9 8.7
2016-Apr-28 03:33N 51°23' E 003°57'6 6.1
2016-Apr-28 02:33N 51°22' E 004°07'7 6.6
2016-Apr-28 01:33N 51°20' E 004°16'2 1.7
2016-Apr-28 00:31N 51°18' E 004°16'0 0.0
2016-Apr-27 23:28N 51°18' E 004°16'0 0.0
2016-Apr-27 22:31N 51°18' E 004°16'0 0.0
2016-Apr-27 21:31N 51°18' E 004°16'0 0.0
2016-Apr-27 20:28N 51°18' E 004°16'0 0.0
2016-Apr-27 19:31N 51°18' E 004°16'0 0.0
2016-Apr-27 18:28N 51°18' E 004°16'0 0.0
2016-Apr-27 17:31N 51°18' E 004°16'0 0.0
2016-Apr-27 16:31N 51°18' E 004°16'0 0.0
2016-Apr-27 15:31N 51°18' E 004°16'0 0.0
2016-Apr-27 14:31N 51°18' E 004°16'0 0.0
2016-Apr-27 13:31N 51°18' E 004°16'0 0.0
2016-Apr-27 12:31N 51°18' E 004°16'0 0.0
2016-Apr-27 11:31N 51°18' E 004°16'0 0.0
2016-Apr-27 10:31N 51°18' E 004°16'0 0.0
2016-Apr-27 09:31N 51°18' E 004°16'0 0.0
2016-Apr-27 08:31N 51°18' E 004°16'0 0.0
2016-Apr-27 07:31N 51°18' E 004°16'0 0.0
2016-Apr-27 06:31N 51°18' E 004°16'0 0.0
2016-Apr-27 05:31N 51°18' E 004°16'0 0.0
2016-Apr-27 04:31N 51°18' E 004°16'0 0.0
2016-Apr-27 03:31N 51°18' E 004°16'0 0.0
2016-Apr-27 02:32N 51°18' E 004°16'6 5.7
2016-Apr-27 01:34N 51°23' E 004°13'10 9.9
2016-Apr-27 00:34N 51°23' E 003°57'1212.1
2016-Apr-26 23:34N 51°26' E 003°38'1111.3
2016-Apr-26 22:33N 51°24' E 003°20'1313.4
2016-Apr-26 21:34N 51°26' E 002°59'1615.3
2016-Apr-26 20:32N 51°39' E 003°11'3314.9
2016-Apr-26 18:18N 52°12' E 003°20'1418.3
2016-Apr-26 17:33N 52°25' E 003°28'5816.9
2016-Apr-26 14:09N 53°11' E 004°25'2916.9
2016-Apr-26 12:26N 53°33' E 004°57'1517.0
2016-Apr-26 11:33N 53°38' E 005°21'1615.9
2016-Apr-26 10:33N 53°42' E 005°46'1414.3
2016-Apr-26 09:33N 53°47' E 006°09'1514.3
2016-Apr-26 08:32N 53°51' E 006°33'1414.7
2016-Apr-26 07:33N 53°54' E 006°57'1615.5
2016-Apr-26 06:33N 53°58' E 007°23'1313.1
2016-Apr-26 05:34N 53°55' E 007°44'1514.7
2016-Apr-26 04:33N 53°49' E 008°07'1717.0
2016-Apr-26 03:33N 53°37' E 008°28'2 2.4
2016-Apr-26 02:33N 53°36' E 008°31'0 0.0
2016-Apr-26 01:32N 53°36' E 008°31'0 0.0
2016-Apr-26 00:32N 53°36' E 008°31'0 0.0
2016-Apr-25 23:32N 53°36' E 008°31'0 0.0
2016-Apr-25 22:32N 53°36' E 008°31'0 0.0
2016-Apr-25 21:32N 53°36' E 008°31'  

Dump ship's entire track history